Terminal Aerodrome Forecast
Issued by NWS

Home | Current Version | Previous Version | Text Only | Print | Product List | Glossary On
Versions: 1 2 3 4 5 6 7 8 9 10 11 12
000
FTUS41 KBTV 240538
TAFRUT
TAF
KRUT 240538Z 2406/2506 13018G28KT P6SM BKN045
     FM241200 14022G32KT P6SM BKN040
     FM241500 15024G36KT P6SM VCSH OVC035
     FM242200 15015G22KT 3SM +RA OVC015
     FM250200 17008KT P6SM -SHRA OVC008=

USA.gov is the U.S. government's official web portal to all federal, state and local government web resources and services.